createdAt,value
2023-05-13T00:01:08.986Z,15.54
2023-05-13T00:03:39.111Z,15.53
2023-05-13T00:06:09.266Z,15.41
2023-05-13T00:08:39.382Z,15.40
2023-05-13T00:11:09.555Z,15.33
2023-05-13T00:13:39.595Z,15.31
2023-05-13T00:16:12.495Z,15.35
2023-05-13T00:18:42.783Z,15.45
2023-05-13T00:21:13.579Z,15.43
2023-05-13T00:23:43.211Z,15.51
2023-05-13T00:26:12.752Z,15.47
2023-05-13T00:28:42.601Z,15.48
2023-05-13T00:31:14.796Z,15.56
2023-05-13T00:33:44.588Z,15.56
2023-05-13T00:36:14.104Z,15.58
2023-05-13T00:38:44.235Z,15.60
2023-05-13T00:41:15.294Z,15.56
2023-05-13T00:43:45.064Z,15.50
2023-05-13T00:46:18.084Z,15.46
2023-05-13T00:48:48.362Z,15.48
2023-05-13T00:51:17.914Z,15.47
2023-05-13T00:53:48.432Z,15.37
2023-05-13T00:56:22.086Z,15.36
2023-05-13T00:58:52.001Z,15.34
2023-05-13T01:01:33.609Z,15.31
2023-05-13T01:04:13.013Z,15.23
2023-05-13T01:06:51.628Z,15.15
2023-05-13T01:09:25.372Z,15.20
2023-05-13T01:11:58.691Z,15.14
2023-05-13T01:14:35.973Z,15.17
2023-05-13T01:17:14.193Z,15.09
2023-05-13T01:19:47.401Z,15.02
2023-05-13T01:22:19.733Z,14.97
2023-05-13T01:24:50.688Z,14.97
2023-05-13T01:27:21.747Z,14.95
2023-05-13T01:29:52.992Z,14.95
2023-05-13T01:32:28.261Z,14.94
2023-05-13T01:34:59.281Z,14.91
2023-05-13T01:37:31.791Z,14.77
2023-05-13T01:40:03.343Z,14.79
2023-05-13T01:42:37.227Z,14.76
2023-05-13T01:45:08.022Z,14.67
2023-05-13T01:47:37.964Z,14.62
2023-05-13T01:50:08.753Z,14.62
2023-05-13T01:52:41.489Z,14.57
2023-05-13T01:55:12.132Z,14.55
2023-05-13T01:57:42.602Z,14.50
2023-05-13T02:00:13.854Z,14.49
2023-05-13T02:02:47.201Z,14.47
2023-05-13T02:05:17.872Z,14.44
2023-05-13T02:07:50.502Z,14.44
2023-05-13T02:10:20.571Z,14.39
2023-05-13T02:12:50.248Z,14.28
2023-05-13T02:15:21.150Z,14.23
2023-05-13T02:17:51.484Z,14.25
2023-05-13T02:20:22.632Z,14.18
2023-05-13T02:22:55.989Z,14.20
2023-05-13T02:25:25.740Z,14.18
2023-05-13T02:27:55.682Z,14.17
2023-05-13T02:30:27.155Z,14.09
2023-05-13T02:32:57.198Z,14.07
2023-05-13T02:35:29.834Z,14.03
2023-05-13T02:38:04.231Z,14.03
2023-05-13T02:40:35.270Z,14.01
2023-05-13T02:43:05.136Z,13.97
2023-05-13T02:45:49.354Z,13.90
2023-05-13T02:48:19.199Z,13.85
2023-05-13T02:50:49.026Z,13.73
2023-05-13T02:53:21.222Z,13.72
2023-05-13T02:55:56.323Z,13.72
2023-05-13T02:58:28.592Z,13.68
2023-05-13T03:00:58.917Z,13.68
2023-05-13T03:03:29.308Z,13.67
2023-05-13T03:05:59.545Z,13.64
2023-05-13T03:08:31.746Z,13.54
2023-05-13T03:11:02.588Z,13.50
2023-05-13T03:13:32.283Z,13.34
2023-05-13T03:16:01.833Z,13.45
2023-05-13T03:18:32.992Z,13.42
2023-05-13T03:21:03.348Z,13.43
2023-05-13T03:23:37.792Z,13.40
2023-05-13T03:26:08.436Z,13.43
2023-05-13T03:28:38.197Z,13.14
2023-05-13T03:31:07.888Z,13.26
2023-05-13T03:33:41.257Z,13.33
2023-05-13T03:36:11.637Z,13.25
2023-05-13T03:38:43.930Z,13.29
2023-05-13T03:41:17.519Z,13.15
2023-05-13T03:43:49.243Z,13.10
2023-05-13T03:46:19.819Z,13.20
2023-05-13T03:48:50.644Z,13.17
2023-05-13T03:51:21.075Z,13.16
2023-05-13T03:53:53.716Z,13.15
2023-05-13T03:56:23.813Z,13.12
2023-05-13T03:58:53.554Z,13.14
2023-05-13T04:01:23.786Z,13.06
2023-05-13T04:03:53.500Z,13.12
2023-05-13T04:06:24.533Z,13.12
2023-05-13T04:08:57.068Z,13.15
2023-05-13T04:11:26.804Z,13.15
2023-05-13T04:13:57.621Z,13.16
2023-05-13T04:16:28.012Z,13.17
2023-05-13T04:18:57.693Z,13.15
2023-05-13T04:21:27.384Z,13.14
2023-05-13T04:24:00.016Z,13.21
2023-05-13T04:26:29.746Z,13.21
2023-05-13T04:28:59.418Z,13.12
2023-05-13T04:31:29.801Z,13.20
2023-05-13T04:33:59.856Z,13.28
2023-05-13T04:36:29.786Z,13.33
2023-05-13T04:39:02.311Z,13.41
2023-05-13T04:41:32.075Z,13.48
2023-05-13T04:44:02.749Z,13.54
2023-05-13T04:46:32.634Z,13.64
2023-05-13T04:49:02.273Z,13.74
2023-05-13T04:51:32.933Z,13.69
2023-05-13T04:54:06.038Z,13.81
2023-05-13T04:56:36.573Z,13.89
2023-05-13T04:59:06.405Z,13.91
2023-05-13T05:01:36.225Z,13.88
2023-05-13T05:04:06.184Z,13.84
2023-05-13T05:06:37.554Z,13.95
2023-05-13T05:09:10.434Z,14.16
2023-05-13T05:11:40.968Z,14.20
2023-05-13T05:14:10.705Z,14.14
2023-05-13T05:16:40.440Z,14.12
2023-05-13T05:19:11.281Z,14.28
2023-05-13T05:21:41.793Z,14.35
2023-05-13T05:24:17.623Z,14.43
2023-05-13T05:26:47.322Z,14.56
2023-05-13T05:29:17.091Z,14.56
2023-05-13T05:31:47.916Z,14.81
2023-05-13T05:34:19.736Z,15.02
2023-05-13T05:36:49.658Z,15.03
2023-05-13T05:39:22.385Z,15.07
2023-05-13T05:41:52.684Z,15.31
2023-05-13T05:44:22.380Z,15.45
2023-05-13T05:46:52.969Z,15.43
2023-05-13T05:49:22.659Z,15.58
2023-05-13T05:51:53.355Z,15.87
2023-05-13T05:54:26.750Z,16.05
2023-05-13T05:56:56.698Z,16.11
2023-05-13T05:59:26.345Z,16.27
2023-05-13T06:01:56.310Z,16.30
2023-05-13T06:04:26.196Z,16.38
2023-05-13T06:06:55.898Z,16.58
2023-05-13T06:09:28.259Z,16.30
2023-05-13T06:11:57.930Z,16.71
2023-05-13T06:14:27.470Z,16.96
2023-05-13T06:16:57.671Z,16.98
2023-05-13T06:19:27.218Z,17.02
2023-05-13T06:21:56.893Z,17.24
2023-05-13T06:24:32.469Z,17.63
2023-05-13T06:27:02.144Z,17.60
2023-05-13T06:29:32.304Z,17.63
2023-05-13T06:32:02.042Z,17.67
2023-05-13T06:34:31.644Z,17.40
2023-05-13T06:37:01.918Z,17.64
2023-05-13T06:39:34.582Z,17.97
2023-05-13T06:42:04.303Z,18.14
2023-05-13T06:44:36.700Z,18.42
2023-05-13T06:47:08.829Z,18.42
2023-05-13T06:49:38.786Z,18.74
2023-05-13T06:52:09.333Z,18.93
2023-05-13T06:54:41.553Z,19.07
2023-05-13T06:57:11.196Z,19.19
2023-05-13T06:59:40.761Z,19.26
2023-05-13T07:02:11.498Z,19.91
2023-05-13T07:04:41.138Z,20.04
2023-05-13T07:07:10.911Z,19.81
2023-05-13T07:09:43.269Z,19.94
2023-05-13T07:12:13.209Z,19.71
2023-05-13T07:14:43.937Z,20.21
2023-05-13T07:17:13.850Z,20.57
2023-05-13T07:19:43.364Z,21.02
2023-05-13T07:22:13.181Z,21.70
2023-05-13T07:24:45.343Z,21.69
2023-05-13T07:27:15.069Z,22.07
2023-05-13T07:29:44.728Z,21.31
2023-05-13T07:32:14.393Z,22.08
2023-05-13T07:34:44.120Z,21.46
2023-05-13T07:37:13.857Z,21.67
2023-05-13T07:39:46.075Z,22.11
2023-05-13T07:42:15.713Z,22.40
2023-05-13T07:44:45.485Z,21.68
2023-05-13T07:47:15.293Z,21.51
2023-05-13T07:49:45.044Z,22.13
2023-05-13T07:52:14.804Z,21.17
2023-05-13T07:54:46.963Z,21.61
2023-05-13T07:57:16.640Z,22.19
2023-05-13T07:59:46.381Z,22.30
2023-05-13T08:02:16.032Z,22.27
2023-05-13T08:04:45.861Z,22.40
2023-05-13T08:07:15.564Z,22.74
2023-05-13T08:09:47.948Z,23.36
2023-05-13T08:12:17.551Z,23.43
2023-05-13T08:14:48.863Z,23.54
2023-05-13T08:17:19.819Z,24.25
2023-05-13T08:19:49.406Z,24.10
2023-05-13T08:22:18.935Z,24.40
2023-05-13T08:24:51.249Z,24.35
2023-05-13T08:27:20.866Z,24.22
2023-05-13T08:29:50.400Z,24.88
2023-05-13T08:32:20.332Z,25.78
2023-05-13T08:34:50.107Z,26.40
2023-05-13T08:37:19.687Z,27.19
2023-05-13T08:39:51.897Z,27.45
2023-05-13T08:42:25.557Z,28.49
2023-05-13T08:44:56.084Z,28.53
2023-05-13T08:47:36.867Z,28.71
2023-05-13T08:50:07.532Z,29.45
2023-05-13T08:52:37.288Z,28.45
2023-05-13T08:55:11.537Z,28.84
2023-05-13T08:57:41.602Z,28.56
2023-05-13T09:00:14.651Z,27.74
2023-05-13T09:02:44.667Z,27.43
2023-05-13T09:05:14.428Z,29.12
2023-05-13T09:07:44.154Z,28.78
2023-05-13T09:10:16.591Z,29.66
2023-05-13T09:12:50.846Z,29.28
2023-05-13T09:15:22.504Z,29.52
2023-05-13T09:17:54.017Z,28.55
2023-05-13T09:20:26.146Z,29.48
2023-05-13T09:22:57.501Z,30.27
2023-05-13T09:25:30.775Z,30.79
2023-05-13T09:28:02.797Z,30.22
2023-05-13T09:30:33.763Z,29.52
2023-05-13T09:33:11.614Z,30.74
2023-05-13T09:35:43.515Z,30.03
2023-05-13T09:38:18.343Z,29.92
2023-05-13T09:40:58.696Z,28.98
2023-05-13T09:43:29.676Z,29.23
2023-05-13T09:46:00.689Z,29.41
2023-05-13T09:48:32.018Z,29.93
2023-05-13T09:51:02.262Z,29.40
2023-05-13T09:53:32.149Z,29.74
2023-05-13T09:56:04.391Z,29.03
2023-05-13T09:58:34.863Z,29.41
2023-05-13T10:01:07.572Z,29.78
2023-05-13T10:03:37.662Z,30.22
2023-05-13T10:06:08.454Z,29.57
2023-05-13T10:08:38.998Z,29.82
2023-05-13T10:11:12.620Z,29.61
2023-05-13T10:13:43.502Z,29.82
2023-05-13T10:16:14.118Z,29.84
2023-05-13T10:18:44.014Z,29.87
2023-05-13T10:21:15.174Z,28.83
2023-05-13T10:23:44.982Z,30.09
2023-05-13T10:26:17.815Z,30.03
2023-05-13T10:28:48.710Z,29.34
2023-05-13T10:31:18.514Z,29.20
2023-05-13T10:33:48.813Z,29.54
2023-05-13T10:36:37.840Z,29.35
2023-05-13T10:39:29.708Z,28.65
2023-05-13T10:42:38.086Z,27.92
2023-05-13T10:45:08.665Z,28.41
2023-05-13T10:47:39.096Z,29.30
2023-05-13T10:50:10.330Z,29.78
2023-05-13T10:52:49.358Z,31.33
2023-05-13T10:55:21.105Z,32.04
2023-05-13T10:58:15.809Z,32.41
2023-05-13T11:00:47.599Z,29.95
2023-05-13T11:03:29.562Z,28.41
2023-05-13T11:06:06.954Z,27.32
2023-05-13T11:08:41.376Z,28.49
2023-05-13T11:11:33.315Z,29.56
2023-05-13T11:14:11.681Z,30.03
2023-05-13T11:16:41.480Z,30.28
2023-05-13T11:19:21.886Z,30.34
2023-05-13T11:21:55.565Z,30.90
2023-05-13T11:24:25.815Z,30.76
2023-05-13T11:26:56.728Z,31.68
2023-05-13T11:29:37.530Z,31.95
2023-05-13T11:32:09.436Z,31.91
2023-05-13T11:34:39.538Z,32.61
2023-05-13T11:37:13.580Z,31.41
2023-05-13T11:39:44.080Z,30.94
2023-05-13T11:42:14.216Z,32.10
2023-05-13T11:44:50.246Z,32.18
2023-05-13T11:47:29.288Z,30.50
2023-05-13T11:49:59.508Z,31.53
2023-05-13T11:52:29.624Z,30.43
2023-05-13T11:55:00.497Z,29.56
2023-05-13T11:57:32.950Z,29.91
2023-05-13T12:00:07.752Z,31.32
2023-05-13T12:02:40.824Z,29.96
2023-05-13T12:05:12.729Z,29.34
2023-05-13T12:07:42.492Z,29.67
2023-05-13T12:10:12.586Z,29.81
2023-05-13T12:12:43.660Z,30.02
2023-05-13T12:15:18.630Z,30.62
2023-05-13T12:17:49.494Z,30.32
2023-05-13T12:20:21.069Z,31.01
2023-05-13T12:22:57.274Z,31.39
2023-05-13T12:25:46.985Z,31.21
2023-05-13T12:28:21.330Z,31.37
2023-05-13T12:30:58.809Z,31.23
2023-05-13T12:33:30.794Z,30.19
2023-05-13T12:36:20.136Z,30.62
2023-05-13T12:39:00.175Z,31.00
2023-05-13T12:41:31.815Z,30.83
2023-05-13T12:44:03.049Z,31.56
2023-05-13T12:46:35.650Z,30.89
2023-05-13T12:49:07.194Z,30.67
2023-05-13T12:51:36.701Z,31.10
2023-05-13T12:54:06.396Z,30.47
2023-05-13T12:56:36.054Z,30.83
2023-05-13T12:59:05.885Z,29.10
2023-05-13T13:01:38.335Z,28.37
2023-05-13T13:04:08.328Z,28.31
2023-05-13T13:06:38.144Z,29.56
2023-05-13T13:09:07.914Z,29.31
2023-05-13T13:11:37.636Z,28.94
2023-05-13T13:14:07.279Z,29.51
2023-05-13T13:16:39.685Z,29.98
2023-05-13T13:19:09.609Z,29.66
2023-05-13T13:21:39.286Z,29.96
2023-05-13T13:24:09.376Z,30.26
2023-05-13T13:26:39.138Z,31.15
2023-05-13T13:29:08.965Z,31.24
2023-05-13T13:31:41.192Z,30.84
2023-05-13T13:34:12.259Z,30.68
2023-05-13T13:36:42.246Z,30.35
2023-05-13T13:39:11.931Z,29.96
2023-05-13T13:41:41.563Z,30.80
2023-05-13T13:44:11.561Z,29.89
2023-05-13T13:46:43.923Z,28.28
2023-05-13T13:49:23.288Z,29.69
2023-05-13T13:51:53.994Z,29.86
2023-05-13T13:54:23.877Z,29.83
2023-05-13T13:56:53.821Z,29.67
2023-05-13T13:59:23.472Z,28.17
2023-05-13T14:01:57.044Z,29.56
2023-05-13T14:04:27.958Z,29.73
2023-05-13T14:06:58.241Z,28.90
2023-05-13T14:09:28.151Z,29.68
2023-05-13T14:11:57.718Z,29.92
2023-05-13T14:14:27.656Z,29.75
2023-05-13T14:16:59.933Z,29.48
2023-05-13T14:19:29.645Z,29.60
2023-05-13T14:21:59.351Z,29.77
2023-05-13T14:24:29.737Z,29.36
2023-05-13T14:26:59.573Z,28.78
2023-05-13T14:29:29.665Z,29.73
2023-05-13T14:32:03.957Z,29.87
2023-05-13T14:34:33.664Z,29.53
2023-05-13T14:37:03.292Z,29.55
2023-05-13T14:39:33.084Z,29.27
2023-05-13T14:42:02.874Z,28.96
2023-05-13T14:44:32.497Z,28.34
2023-05-13T14:47:04.970Z,28.90
2023-05-13T14:49:34.661Z,28.75
2023-05-13T14:52:04.313Z,29.26
2023-05-13T14:54:36.009Z,29.67
2023-05-13T14:57:06.395Z,29.49
2023-05-13T14:59:36.445Z,29.36
2023-05-13T15:02:08.829Z,31.16
2023-05-13T15:04:38.592Z,30.89
2023-05-13T15:07:09.949Z,29.83
2023-05-13T15:09:39.937Z,29.61
2023-05-13T15:12:11.095Z,29.46
2023-05-13T15:14:40.848Z,31.03
2023-05-13T15:17:14.557Z,32.26
2023-05-13T15:19:45.567Z,31.24
2023-05-13T15:22:17.266Z,32.97
2023-05-13T15:24:47.126Z,32.19
2023-05-13T15:27:17.425Z,32.42
2023-05-13T15:29:47.093Z,31.93
2023-05-13T15:32:19.329Z,32.00
2023-05-13T15:34:49.023Z,31.90
2023-05-13T15:37:18.834Z,31.69
2023-05-13T15:39:48.631Z,31.16
2023-05-13T15:42:18.249Z,31.54
2023-05-13T15:44:48.439Z,31.15
2023-05-13T15:47:20.805Z,30.90
2023-05-13T15:49:51.466Z,30.17
2023-05-13T15:52:21.109Z,29.16
2023-05-13T15:54:50.920Z,28.84
2023-05-13T15:57:21.025Z,28.03
2023-05-13T15:59:50.721Z,27.43
2023-05-13T16:02:22.917Z,26.83
2023-05-13T16:04:52.686Z,26.44
2023-05-13T16:07:22.246Z,26.32
2023-05-13T16:09:51.964Z,25.91
2023-05-13T16:12:21.727Z,25.71
2023-05-13T16:14:51.387Z,25.43
2023-05-13T16:17:23.665Z,25.18
2023-05-13T16:19:53.465Z,25.15
2023-05-13T16:22:32.878Z,24.99
2023-05-13T16:25:04.825Z,24.76
2023-05-13T16:27:35.296Z,24.67
2023-05-13T16:30:06.342Z,24.52
2023-05-13T16:32:39.198Z,24.42
2023-05-13T16:35:11.737Z,24.23
2023-05-13T16:37:41.553Z,24.24
2023-05-13T16:40:12.762Z,24.23
2023-05-13T16:42:42.525Z,24.20
2023-05-13T16:45:12.811Z,24.07
2023-05-13T16:47:45.243Z,24.02
2023-05-13T16:50:15.031Z,23.94
2023-05-13T16:52:44.688Z,23.93
2023-05-13T16:55:15.822Z,23.88
2023-05-13T16:57:47.084Z,23.73
2023-05-13T17:00:17.695Z,23.66
2023-05-13T17:02:50.058Z,23.69
2023-05-13T17:05:19.836Z,23.62
2023-05-13T17:07:49.564Z,23.64
2023-05-13T17:10:19.329Z,23.63
2023-05-13T17:12:48.944Z,23.55
2023-05-13T17:15:19.073Z,23.41
2023-05-13T17:17:51.447Z,23.38
2023-05-13T17:20:21.835Z,23.54
2023-05-13T17:22:51.763Z,23.56
2023-05-13T17:25:21.441Z,23.60
2023-05-13T17:27:51.115Z,23.61
2023-05-13T17:30:21.278Z,23.61
2023-05-13T17:32:53.719Z,23.60
2023-05-13T17:35:23.439Z,23.21
2023-05-13T17:37:53.414Z,23.37
2023-05-13T17:40:23.380Z,23.31
2023-05-13T17:42:53.355Z,23.30
2023-05-13T17:45:23.603Z,23.19
2023-05-13T17:47:56.127Z,23.09
2023-05-13T17:50:26.255Z,23.05
2023-05-13T17:52:55.886Z,23.04
2023-05-13T17:55:25.535Z,22.93
2023-05-13T17:57:55.670Z,22.88
2023-05-13T18:00:27.846Z,22.69
2023-05-13T18:03:00.162Z,22.65
2023-05-13T18:05:29.909Z,22.58
2023-05-13T18:07:59.590Z,22.60
2023-05-13T18:10:29.601Z,22.53
2023-05-13T18:12:59.121Z,22.40
2023-05-13T18:15:31.274Z,22.41
2023-05-13T18:18:04.095Z,22.38
2023-05-13T18:20:34.152Z,22.39
2023-05-13T18:23:03.731Z,22.34
2023-05-13T18:25:42.455Z,22.30
2023-05-13T18:28:18.364Z,22.19
2023-05-13T18:30:48.032Z,22.14
2023-05-13T18:33:22.408Z,22.06
2023-05-13T18:35:52.418Z,21.98
2023-05-13T18:38:22.030Z,21.95
2023-05-13T18:40:51.847Z,21.89
2023-05-13T18:43:22.581Z,21.84
2023-05-13T18:45:52.515Z,21.78
2023-05-13T18:48:25.686Z,21.67
2023-05-13T18:50:56.301Z,21.68
2023-05-13T18:53:26.058Z,21.55
2023-05-13T18:55:58.495Z,21.54
2023-05-13T18:58:28.724Z,21.46
2023-05-13T19:00:58.354Z,21.40
2023-05-13T19:03:30.867Z,21.33
2023-05-13T19:06:00.692Z,21.26
2023-05-13T19:08:30.226Z,21.14
2023-05-13T19:11:00.196Z,21.10
2023-05-13T19:13:45.754Z,20.99
2023-05-13T19:16:17.001Z,20.91
2023-05-13T19:18:51.587Z,20.87
2023-05-13T19:21:22.149Z,20.78
2023-05-13T19:23:54.603Z,20.72
2023-05-13T19:26:24.419Z,20.64
2023-05-13T19:28:54.442Z,20.51
2023-05-13T19:31:24.785Z,20.25
2023-05-13T19:33:56.960Z,20.08
2023-05-13T19:36:26.864Z,19.93
2023-05-13T19:38:57.392Z,19.70
2023-05-13T19:41:27.180Z,19.56
2023-05-13T19:43:56.912Z,19.44
2023-05-13T19:46:26.586Z,19.28
2023-05-13T19:48:58.853Z,19.12
2023-05-13T19:51:29.169Z,19.11
2023-05-13T19:53:58.942Z,18.92
2023-05-13T19:56:29.008Z,18.84
2023-05-13T19:58:58.734Z,18.67
2023-05-13T20:01:28.619Z,18.58
2023-05-13T20:04:01.307Z,18.57
2023-05-13T20:06:31.260Z,18.48
2023-05-13T20:09:02.160Z,18.40
2023-05-13T20:11:31.885Z,18.37
2023-05-13T20:14:02.129Z,18.35
2023-05-13T20:16:31.902Z,18.23
2023-05-13T20:19:04.505Z,18.19
2023-05-13T20:21:37.202Z,18.16
2023-05-13T20:24:10.214Z,18.10
2023-05-13T20:26:39.891Z,18.11
2023-05-13T20:29:09.478Z,18.11
2023-05-13T20:31:42.618Z,18.05
2023-05-13T20:34:15.435Z,18.04
2023-05-13T20:36:45.172Z,18.00
2023-05-13T20:39:14.808Z,17.93
2023-05-13T20:41:44.602Z,17.85
2023-05-13T20:44:16.156Z,17.85
2023-05-13T20:46:46.106Z,17.84
2023-05-13T20:49:19.089Z,17.78
2023-05-13T20:51:51.112Z,17.75
2023-05-13T20:54:24.049Z,17.76
2023-05-13T20:56:55.440Z,17.71
2023-05-13T20:59:25.640Z,17.71
2023-05-13T21:01:55.477Z,17.64
2023-05-13T21:04:28.576Z,17.69
2023-05-13T21:06:58.445Z,17.58
2023-05-13T21:09:28.136Z,17.51
2023-05-13T21:11:57.945Z,17.49
2023-05-13T21:14:27.768Z,17.39
2023-05-13T21:16:57.537Z,17.31
2023-05-13T21:19:29.936Z,17.29
2023-05-13T21:22:01.741Z,17.19
2023-05-13T21:24:31.761Z,17.16
2023-05-13T21:27:01.337Z,17.10
2023-05-13T21:29:31.254Z,16.99
2023-05-13T21:32:01.011Z,16.98
2023-05-13T21:34:33.348Z,16.94
2023-05-13T21:37:03.065Z,16.91
2023-05-13T21:39:32.803Z,16.86
2023-05-13T21:42:03.564Z,16.89
2023-05-13T21:44:33.369Z,16.78
2023-05-13T21:47:03.023Z,16.69
2023-05-13T21:49:35.447Z,16.70
2023-05-13T21:52:05.334Z,16.66
2023-05-13T21:54:34.979Z,16.69
2023-05-13T21:57:04.753Z,16.68
2023-05-13T21:59:34.675Z,16.64
2023-05-13T22:02:04.663Z,16.66
2023-05-13T22:04:37.302Z,16.66
2023-05-13T22:07:07.525Z,16.69
2023-05-13T22:09:37.554Z,16.61
2023-05-13T22:12:07.977Z,16.57
2023-05-13T22:14:37.825Z,16.51
2023-05-13T22:17:09.702Z,16.52
2023-05-13T22:19:43.539Z,16.51
2023-05-13T22:22:13.276Z,16.47
2023-05-13T22:24:43.020Z,16.37
2023-05-13T22:27:13.290Z,16.31
2023-05-13T22:29:43.051Z,16.21
2023-05-13T22:32:12.944Z,16.20
2023-05-13T22:34:45.367Z,16.19
2023-05-13T22:37:15.062Z,16.06
2023-05-13T22:39:44.721Z,15.87
2023-05-13T22:42:14.488Z,15.84
2023-05-13T22:44:44.226Z,15.86
2023-05-13T22:47:13.817Z,15.81
2023-05-13T22:49:48.904Z,15.75
2023-05-13T22:52:18.656Z,15.76
2023-05-13T22:54:48.269Z,15.68
2023-05-13T22:57:17.851Z,15.62
2023-05-13T22:59:47.476Z,15.58
2023-05-13T23:02:17.201Z,15.62
2023-05-13T23:04:49.431Z,15.59
2023-05-13T23:07:19.330Z,15.54
2023-05-13T23:09:48.961Z,15.49
2023-05-13T23:12:18.694Z,15.51
2023-05-13T23:14:48.413Z,15.48
2023-05-13T23:17:18.048Z,15.48
2023-05-13T23:19:50.402Z,15.54
2023-05-13T23:22:20.195Z,15.54
2023-05-13T23:24:49.699Z,15.49
2023-05-13T23:27:19.332Z,15.46
2023-05-13T23:29:49.421Z,15.51
2023-05-13T23:32:19.291Z,15.48
2023-05-13T23:34:51.516Z,15.46
2023-05-13T23:37:22.307Z,15.47
2023-05-13T23:39:52.112Z,15.47
2023-05-13T23:42:21.876Z,15.51
2023-05-13T23:44:51.660Z,15.49
2023-05-13T23:47:21.980Z,15.50
2023-05-13T23:49:54.428Z,15.48
2023-05-13T23:52:24.238Z,15.46
2023-05-13T23:54:53.781Z,15.43
2023-05-13T23:57:23.555Z,15.43
2023-05-13T23:59:53.339Z,15.41
